Time;durP1;ratioP1;P1;durP2;ratioP2;P2;SDS_P1;SDS_P2;PMS_P1;PMS_P2;Temp;Humidity;BMP_temperature;BMP_pressure;BME280_temperature;BME280_humidity;BME280_pressure;Samples;Min_cycle;Max_cycle;Signal;HPM_P1;HPM_P2
2023/08/25 00:01:23;;;;;;;41.03;23.95;;;;;;;19.41;100.00;100998.31;6084351;19;20007;-72
2023/08/25 00:03:29;;;;;;;42.55;21.73;;;;;;;19.42;100.00;101007.16;6090322;19;20024;-75
2023/08/25 00:05:38;;;;;;;39.83;21.48;;;;;;;19.38;100.00;101005.66;6091271;19;20007;-73
2023/08/25 00:07:43;;;;;;;39.88;20.95;;;;;;;19.43;100.00;101003.50;6090752;19;20090;-73
2023/08/25 00:09:51;;;;;;;44.03;21.95;;;;;;;19.40;100.00;101003.75;6083346;19;20006;-74
2023/08/25 00:11:56;;;;;;;40.80;22.95;;;;;;;19.38;100.00;101006.53;6090847;19;20040;-73
2023/08/25 00:14:00;;;;;;;38.53;19.55;;;;;;;19.35;100.00;101003.22;6089209;19;20281;-73
2023/08/25 00:16:06;;;;;;;40.95;22.13;;;;;;;19.31;100.00;100994.63;6090588;19;20007;-73
2023/08/25 00:18:11;;;;;;;48.75;23.38;;;;;;;19.24;100.00;100991.56;6065226;19;20025;-73
2023/08/25 00:20:16;;;;;;;47.83;22.90;;;;;;;19.20;100.00;100990.09;6089412;19;20034;-73
2023/08/25 00:22:21;;;;;;;42.83;22.80;;;;;;;19.13;100.00;100991.53;6089944;19;20053;-73
2023/08/25 00:24:30;;;;;;;42.15;21.55;;;;;;;19.11;100.00;100985.44;6092492;19;20020;-75
2023/08/25 00:26:39;;;;;;;37.30;21.13;;;;;;;19.07;100.00;100991.97;6090954;19;20017;-73
2023/08/25 00:28:45;;;;;;;37.38;19.92;;;;;;;19.10;100.00;100993.56;6091740;19;20038;-73
2023/08/25 00:30:51;;;;;;;33.65;18.58;;;;;;;19.10;100.00;100990.91;6094097;19;20007;-74
2023/08/25 00:33:00;;;;;;;43.50;20.45;;;;;;;19.10;100.00;100988.25;6096609;19;20451;-74
2023/08/25 00:35:06;;;;;;;33.28;18.00;;;;;;;19.06;100.00;100993.81;6095155;19;20006;-73
2023/08/25 00:37:11;;;;;;;32.55;17.65;;;;;;;19.03;100.00;100991.34;6087739;19;20031;-73
2023/08/25 00:39:16;;;;;;;37.45;19.48;;;;;;;18.96;100.00;100992.78;6081967;19;20066;-72
2023/08/25 00:41:21;;;;;;;39.65;18.85;;;;;;;18.91;100.00;100991.41;6091894;19;20014;-73
2023/08/25 00:43:28;;;;;;;33.45;17.75;;;;;;;18.91;100.00;100994.91;6093661;19;20006;-73
2023/08/25 00:45:38;;;;;;;32.35;15.77;;;;;;;18.89;100.00;100996.84;6094248;19;20078;-73
2023/08/25 00:47:43;;;;;;;33.00;17.55;;;;;;;18.85;100.00;100998.88;6094862;19;20006;-73
2023/08/25 00:49:49;;;;;;;35.40;18.95;;;;;;;18.82;100.00;101004.41;6097205;19;20009;-73
2023/08/25 00:51:55;;;;;;;35.30;18.90;;;;;;;18.81;100.00;100999.22;6092393;19;20011;-72
2023/08/25 00:53:57;;;;;;;31.15;17.35;;;;;;;18.78;100.00;101002.94;6086236;19;20438;-72
2023/08/25 00:56:04;;;;;;;29.17;17.02;;;;;;;18.75;100.00;101011.16;6093391;19;20007;-73
2023/08/25 00:58:10;;;;;;;31.58;17.25;;;;;;;18.72;100.00;101010.47;6087217;19;20023;-72
2023/08/25 01:00:18;;;;;;;36.75;17.83;;;;;;;18.72;100.00;101006.03;6085226;19;20102;-73
2023/08/25 01:02:23;;;;;;;39.55;18.92;;;;;;;18.68;100.00;101006.34;6092008;19;20019;-73
2023/08/25 01:04:32;;;;;;;39.13;19.58;;;;;;;18.64;100.00;101003.03;6088865;19;20123;-72
2023/08/25 01:06:37;;;;;;;34.30;18.00;;;;;;;18.62;100.00;101002.31;6089341;19;20035;-73
2023/08/25 01:08:42;;;;;;;35.85;19.67;;;;;;;18.58;100.00;101003.50;6092743;19;20015;-73
2023/08/25 01:10:57;;;;;;;33.72;17.67;;;;;;;18.56;100.00;101003.63;6092574;19;20011;-73
2023/08/25 01:13:12;;;;;;;38.83;19.45;;;;;;;18.53;100.00;101002.97;6089501;19;20712;-74
2023/08/25 01:15:25;;;;;;;35.33;18.88;;;;;;;18.51;100.00;101003.09;6088317;19;20066;-73
2023/08/25 01:17:36;;;;;;;33.90;18.17;;;;;;;18.47;100.00;101006.91;6088947;19;20058;-74
2023/08/25 01:19:58;;;;;;;32.13;15.85;;;;;;;18.43;100.00;101000.09;6090506;19;20039;-74
2023/08/25 01:22:14;;;;;;;32.05;15.85;;;;;;;18.40;100.00;100997.66;6089094;19;20007;-73
2023/08/25 01:24:28;;;;;;;38.10;17.85;;;;;;;18.38;100.00;101004.94;6094327;19;20267;-74
2023/08/25 01:26:40;;;;;;;39.15;19.35;;;;;;;18.40;100.00;101001.19;6088648;19;20015;-73
2023/08/25 01:28:52;;;;;;;38.53;19.10;;;;;;;18.33;100.00;100997.25;6092886;19;20015;-75
2023/08/25 01:31:04;;;;;;;41.70;19.98;;;;;;;18.37;100.00;100995.22;6093807;19;20011;-73
2023/08/25 01:33:10;;;;;;;35.45;17.10;;;;;;;18.34;100.00;100990.13;6086142;19;20003;-74
2023/08/25 01:35:16;;;;;;;41.35;19.98;;;;;;;18.39;100.00;100991.50;6083753;19;20477;-72
2023/08/25 01:37:26;;;;;;;44.53;19.88;;;;;;;18.38;100.00;100995.13;6086504;19;20125;-74
2023/08/25 01:39:33;;;;;;;39.00;19.00;;;;;;;18.37;100.00;100992.56;6094033;19;20043;-74
2023/08/25 01:41:45;;;;;;;36.97;18.23;;;;;;;18.36;100.00;100983.75;6095033;19;20003;-73
2023/08/25 01:43:53;;;;;;;45.65;21.35;;;;;;;18.34;100.00;100990.13;6091492;19;20035;-73
2023/08/25 01:46:01;;;;;;;36.47;18.55;;;;;;;18.34;100.00;100985.66;6093543;19;20010;-73
2023/08/25 01:48:08;;;;;;;43.50;21.08;;;;;;;18.36;100.00;100990.88;6094044;19;20013;-73
2023/08/25 01:50:15;;;;;;;41.72;19.95;;;;;;;18.29;100.00;100990.44;6096448;19;20018;-73
2023/08/25 01:52:21;;;;;;;40.50;19.58;;;;;;;18.30;100.00;100981.53;6090509;19;20013;-74
2023/08/25 01:54:28;;;;;;;42.90;20.40;;;;;;;18.31;100.00;100985.88;6096838;19;20003;-74
2023/08/25 01:56:36;;;;;;;36.55;19.02;;;;;;;18.26;100.00;100982.69;6096100;19;20010;-74
2023/08/25 01:58:44;;;;;;;45.60;20.67;;;;;;;18.27;100.00;100972.88;6096369;19;20653;-73
2023/08/25 02:00:50;;;;;;;33.25;16.98;;;;;;;18.23;100.00;100977.59;6098026;19;20030;-74
2023/08/25 02:02:55;;;;;;;39.53;18.98;;;;;;;18.26;100.00;100969.38;6096113;19;20019;-73
2023/08/25 02:05:00;;;;;;;36.83;18.48;;;;;;;18.20;100.00;100967.16;6097444;19;20458;-73
2023/08/25 02:07:06;;;;;;;36.15;16.75;;;;;;;18.15;100.00;100971.97;6094289;19;20010;-73
2023/08/25 02:09:10;;;;;;;36.85;17.50;;;;;;;18.13;100.00;100969.38;6092010;19;20024;-73
2023/08/25 02:11:15;;;;;;;33.88;16.67;;;;;;;18.10;100.00;100968.75;6092482;19;20006;-72
2023/08/25 02:13:20;;;;;;;36.55;17.52;;;;;;;18.04;100.00;100962.06;6099071;19;20218;-72
2023/08/25 02:15:28;;;;;;;40.78;18.35;;;;;;;18.07;100.00;100963.66;6098902;19;20009;-73
2023/08/25 02:17:35;;;;;;;37.60;18.42;;;;;;;18.01;100.00;100964.06;6096095;19;20019;-73
2023/08/25 02:19:40;;;;;;;37.42;18.40;;;;;;;17.97;100.00;100961.63;6094550;19;20299;-73
2023/08/25 02:21:45;;;;;;;43.25;19.70;;;;;;;17.95;100.00;100962.69;6097646;19;20393;-73
2023/08/25 02:23:50;;;;;;;32.40;17.15;;;;;;;17.90;100.00;100955.03;6098508;19;20012;-70
2023/08/25 02:25:56;;;;;;;34.72;16.23;;;;;;;17.90;100.00;100957.69;6091052;19;20015;-71
2023/08/25 02:28:00;;;;;;;36.13;19.30;;;;;;;17.92;100.00;100944.31;6095614;19;20015;-71
2023/08/25 02:30:06;;;;;;;37.08;17.95;;;;;;;17.96;100.00;100938.69;6096906;19;20010;-72
2023/08/25 02:32:14;;;;;;;33.50;17.10;;;;;;;17.94;100.00;100940.59;6097038;19;20745;-72
2023/08/25 02:34:19;;;;;;;35.22;18.25;;;;;;;17.98;100.00;100942.09;6096274;19;20086;-70
2023/08/25 02:36:24;;;;;;;41.55;19.13;;;;;;;18.09;100.00;100937.78;6094282;19;20027;-71
2023/08/25 02:38:29;;;;;;;36.75;18.17;;;;;;;18.15;100.00;100934.72;6095011;19;20802;-71
2023/08/25 02:40:34;;;;;;;46.10;20.38;;;;;;;18.28;100.00;100934.69;6098339;19;21981;-70
2023/08/25 02:42:39;;;;;;;40.08;19.60;;;;;;;18.32;100.00;100931.69;6090447;19;20038;-71
2023/08/25 02:44:45;;;;;;;39.70;20.10;;;;;;;18.34;100.00;100928.94;6097169;19;20010;-71
2023/08/25 02:46:50;;;;;;;39.17;18.67;;;;;;;18.36;100.00;100925.22;6093052;19;20102;-71
2023/08/25 02:48:55;;;;;;;40.95;18.95;;;;;;;18.39;100.00;100918.81;6096725;19;20020;-72
2023/08/25 02:51:00;;;;;;;44.55;19.83;;;;;;;18.42;100.00;100916.78;6097116;19;20010;-75
2023/08/25 02:53:05;;;;;;;41.42;18.90;;;;;;;18.46;100.00;100914.75;6093492;19;19999;-73
2023/08/25 02:55:11;;;;;;;42.65;20.15;;;;;;;18.47;100.00;100916.44;6096126;19;20026;-71
2023/08/25 02:57:16;;;;;;;46.80;20.52;;;;;;;18.50;100.00;100908.22;6091492;19;20132;-72
2023/08/25 02:59:21;;;;;;;38.80;19.92;;;;;;;18.55;100.00;100907.91;6094682;19;20006;-74
2023/08/25 03:01:29;;;;;;;49.28;21.58;;;;;;;18.55;100.00;100895.44;6095311;19;20553;-74
2023/08/25 03:03:34;;;;;;;43.33;20.35;;;;;;;18.56;100.00;100897.16;6092083;19;20369;-74
2023/08/25 03:05:46;;;;;;;42.22;21.45;;;;;;;18.57;100.00;100903.34;6095623;19;20538;-75
2023/08/25 03:07:53;;;;;;;47.08;20.02;;;;;;;18.60;100.00;100900.44;6095459;19;20019;-73
2023/08/25 03:09:59;;;;;;;45.08;21.95;;;;;;;18.62;100.00;100893.19;6095922;19;20466;-73
2023/08/25 03:12:04;;;;;;;47.63;21.83;;;;;;;18.66;100.00;100899.97;6088743;19;21377;-74
2023/08/25 03:14:09;;;;;;;43.17;20.88;;;;;;;18.69;100.00;100902.41;6094595;19;20476;-71
2023/08/25 03:16:14;;;;;;;44.20;21.73;;;;;;;18.75;100.00;100896.69;6095974;19;20007;-70
2023/08/25 03:18:19;;;;;;;52.05;23.05;;;;;;;18.76;100.00;100898.38;6092613;19;20023;-72
2023/08/25 03:20:25;;;;;;;56.83;23.95;;;;;;;18.77;100.00;100889.44;6097164;19;20034;-71
2023/08/25 03:22:32;;;;;;;44.90;22.88;;;;;;;18.76;100.00;100885.06;6092650;19;20010;-72
2023/08/25 03:24:37;;;;;;;48.97;23.20;;;;;;;18.77;100.00;100884.13;6094090;19;20010;-71
2023/08/25 03:26:42;;;;;;;45.05;21.67;;;;;;;18.80;100.00;100883.88;6090794;19;20467;-71
2023/08/25 03:28:47;;;;;;;53.17;23.38;;;;;;;18.83;100.00;100885.47;6094112;19;20031;-71
2023/08/25 03:30:55;;;;;;;50.85;23.73;;;;;;;18.85;100.00;100880.84;6095824;19;20010;-71
2023/08/25 03:33:00;;;;;;;46.53;22.42;;;;;;;18.81;100.00;100880.25;6088016;19;20489;-72
2023/08/25 03:35:06;;;;;;;56.88;24.65;;;;;;;18.83;100.00;100878.31;6095019;19;20010;-72
2023/08/25 03:37:11;;;;;;;48.83;22.83;;;;;;;18.85;100.00;100880.84;6089177;19;20010;-70
2023/08/25 03:39:19;;;;;;;49.60;23.98;;;;;;;18.88;100.00;100874.44;6093815;19;20708;-71
2023/08/25 03:41:26;;;;;;;54.17;24.70;;;;;;;18.86;100.00;100878.09;6092814;19;20082;-71
2023/08/25 03:43:31;;;;;;;52.60;26.08;;;;;;;18.87;100.00;100878.94;6093892;19;20014;-71
2023/08/25 03:45:38;;;;;;;53.45;25.00;;;;;;;18.88;100.00;100875.31;6092598;19;20017;-71
2023/08/25 03:47:43;;;;;;;43.78;24.13;;;;;;;18.87;100.00;100881.59;6095946;19;20010;-71
2023/08/25 03:49:48;;;;;;;43.38;20.52;;;;;;;18.86;100.00;100874.59;6095182;19;20042;-72
2023/08/25 03:51:53;;;;;;;53.88;22.80;;;;;;;18.92;100.00;100873.28;6087889;19;20014;-71
2023/08/25 03:53:58;;;;;;;50.80;24.15;;;;;;;18.90;100.00;100869.88;6088828;19;20014;-71
2023/08/25 03:56:04;;;;;;;53.53;24.60;;;;;;;18.92;100.00;100871.44;6094109;19;20017;-70
2023/08/25 03:58:09;;;;;;;56.60;25.45;;;;;;;18.96;100.00;100866.75;6094357;19;20043;-70
2023/08/25 04:00:14;;;;;;;51.70;23.05;;;;;;;18.95;100.00;100870.38;6090438;19;20010;-71
2023/08/25 04:02:16;;;;;;;55.88;24.50;;;;;;;18.97;100.00;100863.13;6092624;19;20570;-72
2023/08/25 04:04:21;;;;;;;49.72;23.73;;;;;;;18.97;100.00;100863.13;6094537;19;20039;-71
2023/08/25 04:06:30;;;;;;;44.13;21.20;;;;;;;18.97;100.00;100863.13;6093520;19;20010;-70
2023/08/25 04:08:38;;;;;;;46.95;23.88;;;;;;;18.97;100.00;100857.81;6092502;19;20407;-71
2023/08/25 04:10:43;;;;;;;53.90;24.30;;;;;;;18.99;100.00;100861.19;6088386;19;20006;-71
2023/08/25 04:12:50;;;;;;;49.05;22.75;;;;;;;18.99;100.00;100858.53;6095826;19;20046;-71
2023/08/25 04:14:55;;;;;;;50.38;22.38;;;;;;;19.01;100.00;100865.44;6093980;19;20106;-71
2023/08/25 04:17:00;;;;;;;50.10;22.83;;;;;;;19.03;100.00;100860.00;6094711;19;20027;-71
2023/08/25 04:19:05;;;;;;;45.67;21.80;;;;;;;19.04;100.00;100859.88;6089983;19;20003;-72
2023/08/25 04:21:10;;;;;;;47.72;23.13;;;;;;;19.05;100.00;100858.06;6091597;19;20372;-72
2023/08/25 04:23:15;;;;;;;50.05;23.70;;;;;;;19.05;100.00;100852.75;6096544;19;20818;-70
2023/08/25 04:25:20;;;;;;;56.28;25.52;;;;;;;19.05;100.00;100852.75;6095207;19;20009;-73
2023/08/25 04:27:25;;;;;;;57.00;25.05;;;;;;;19.04;100.00;100846.56;6093699;19;20010;-71
2023/08/25 04:29:34;;;;;;;54.10;23.15;;;;;;;19.05;100.00;100845.59;6092177;19;20030;-71
2023/08/25 04:31:39;;;;;;;51.55;24.08;;;;;;;19.05;100.00;100852.75;6098106;19;20015;-71
2023/08/25 04:33:44;;;;;;;45.95;23.17;;;;;;;19.08;100.00;100852.50;6097481;19;20499;-71
2023/08/25 04:35:46;;;;;;;52.47;24.00;;;;;;;19.09;100.00;100856.88;6096655;19;20007;-71
2023/08/25 04:37:51;;;;;;;56.10;25.67;;;;;;;19.10;100.00;100865.72;6094426;19;20070;-71
2023/08/25 04:39:57;;;;;;;57.45;25.88;;;;;;;19.10;100.00;100863.91;6096098;19;20014;-71
2023/08/25 04:42:02;;;;;;;53.78;23.95;;;;;;;19.11;100.00;100865.56;6096157;19;20542;-71
2023/08/25 04:44:07;;;;;;;56.22;26.05;;;;;;;19.12;100.00;100861.13;6096189;19;20042;-70
2023/08/25 04:46:15;;;;;;;50.65;22.83;;;;;;;19.13;100.00;100862.81;6091001;19;20591;-71
2023/08/25 04:48:22;;;;;;;52.38;24.20;;;;;;;19.17;100.00;100854.47;6096880;19;20449;-70
2023/08/25 04:50:29;;;;;;;48.88;22.88;;;;;;;19.16;100.00;100860.75;6094981;19;20823;-70
2023/08/25 04:52:35;;;;;;;47.05;22.05;;;;;;;19.18;100.00;100865.97;6091786;19;20456;-70
2023/08/25 04:54:41;;;;;;;49.67;22.98;;;;;;;19.17;100.00;100859.81;6095005;19;20006;-71
2023/08/25 04:56:49;;;;;;;52.22;22.88;;;;;;;19.20;100.00;100856.91;6093830;19;20665;-71
2023/08/25 04:58:52;;;;;;;55.13;25.38;;;;;;;19.18;100.00;100865.97;6092014;19;21306;-71
2023/08/25 05:01:32;;;;;;;58.53;25.92;;;;;;;19.18;100.00;100868.63;6090547;19;20010;-72
2023/08/25 05:03:49;;;;;;;;;;;;;;;;;;;;;
2023/08/25 05:06:03;;;;;;;52.15;26.10;;;;;;;19.18;100.00;100869.47;6092185;19;20641;-71
2023/08/25 05:08:08;;;;;;;53.63;23.30;;;;;;;19.20;100.00;100858.72;6092374;19;20027;-72
2023/08/25 05:10:14;;;;;;;55.58;25.10;;;;;;;19.18;100.00;100861.50;6093775;19;20034;-70
2023/08/25 05:12:22;;;;;;;54.78;25.58;;;;;;;19.20;100.00;100864.06;6077898;19;20010;-73
2023/08/25 05:14:29;;;;;;;52.45;24.30;;;;;;;19.21;100.00;100861.25;6087165;19;20003;-73
2023/08/25 05:16:33;;;;;;;48.88;22.20;;;;;;;19.22;100.00;100860.31;6095376;19;20006;-74
2023/08/25 05:18:41;;;;;;;54.50;26.70;;;;;;;19.22;100.00;100860.31;6092617;19;20060;-73
2023/08/25 05:20:46;;;;;;;53.83;23.65;;;;;;;19.26;100.00;100871.56;6092676;19;20087;-72
2023/08/25 05:22:52;;;;;;;51.50;24.40;;;;;;;19.25;100.00;100870.72;6093124;19;20074;-73
2023/08/25 05:24:59;;;;;;;44.38;21.52;;;;;;;19.29;100.00;100864.19;6093464;19;20011;-73
2023/08/25 05:27:04;;;;;;;56.67;26.17;;;;;;;19.33;100.00;100859.47;6096314;19;20443;-73
2023/08/25 05:29:09;;;;;;;53.85;25.42;;;;;;;19.33;100.00;100859.47;6098474;19;20002;-73
2023/08/25 05:31:14;;;;;;;48.28;22.95;;;;;;;19.35;100.00;100857.53;6093279;19;20352;-74
2023/08/25 05:33:19;;;;;;;51.45;23.88;;;;;;;19.33;100.00;100854.16;6100835;19;20007;-73
2023/08/25 05:35:28;;;;;;;45.90;21.95;;;;;;;19.39;100.00;100852.81;6094323;19;20440;-73
2023/08/25 05:37:34;;;;;;;48.40;23.45;;;;;;;19.32;100.00;100846.25;6097168;19;20039;-74
2023/08/25 05:39:38;;;;;;;53.85;22.20;;;;;;;19.30;100.00;100847.25;6097320;19;20014;-71
2023/08/25 05:41:43;;;;;;;42.28;21.15;;;;;;;19.31;100.00;100848.09;6095698;19;20399;-70
2023/08/25 05:43:50;;;;;;;46.33;20.77;;;;;;;19.33;100.00;100845.31;6095059;19;20098;-70
2023/08/25 05:45:56;;;;;;;39.05;20.25;;;;;;;19.42;100.00;100847.25;6097983;19;20028;-71
2023/08/25 05:48:01;;;;;;;45.08;20.63;;;;;;;19.39;100.00;100845.66;6098519;19;20363;-71
2023/08/25 05:50:07;;;;;;;38.83;18.35;;;;;;;19.48;100.00;100850.31;6098465;19;20067;-72
2023/08/25 05:52:14;;;;;;;31.85;15.35;;;;;;;19.57;100.00;100845.22;6061939;19;20078;-72
2023/08/25 05:54:19;;;;;;;38.17;17.73;;;;;;;19.70;100.00;100841.50;6094292;19;20013;-72
2023/08/25 05:56:27;;;;;;;35.03;16.50;;;;;;;19.86;100.00;100843.78;6097509;19;20638;-72
2023/08/25 05:58:32;;;;;;;31.65;15.23;;;;;;;19.94;100.00;100838.69;6097223;19;20002;-71
2023/08/25 06:00:37;;;;;;;36.22;15.38;;;;;;;20.03;100.00;100839.75;6085772;19;20018;-71
2023/08/25 06:02:42;;;;;;;27.85;14.77;;;;;;;19.96;100.00;100838.59;6094376;19;20022;-70
2023/08/25 06:04:47;;;;;;;35.88;15.60;;;;;;;19.97;100.00;100844.75;6095730;19;20017;-72
2023/08/25 06:06:52;;;;;;;30.02;15.48;;;;;;;19.90;100.00;100836.38;6096000;19;20006;-72
2023/08/25 06:09:01;;;;;;;30.10;13.40;;;;;;;19.94;100.00;100837.84;6092793;19;20412;-71
2023/08/25 06:11:07;;;;;;;29.70;15.25;;;;;;;20.06;100.00;100826.19;6093441;19;20013;-71
2023/08/25 06:13:12;;;;;;;27.30;13.20;;;;;;;20.18;100.00;100824.34;6093203;19;19999;-72
2023/08/25 06:15:17;;;;;;;29.67;13.43;;;;;;;20.35;100.00;100820.28;6095085;19;20013;-74
2023/08/25 06:17:22;;;;;;;26.88;13.35;;;;;;;20.60;100.00;100814.66;6096065;19;20491;-73
2023/08/25 06:19:29;;;;;;;30.48;14.90;;;;;;;20.34;100.00;100824.78;6092856;19;20007;-73
2023/08/25 06:21:34;;;;;;;29.25;15.88;;;;;;;20.23;100.00;100830.16;6092941;19;20404;-74
2023/08/25 06:23:39;;;;;;;34.15;16.80;;;;;;;20.17;100.00;100836.00;6096759;19;20489;-74
2023/08/25 06:25:50;;;;;;;31.02;17.17;;;;;;;20.17;100.00;100839.50;6094667;19;20475;-72
2023/08/25 06:27:55;;;;;;;34.20;18.35;;;;;;;20.05;100.00;100837.81;6095414;19;20045;-71
2023/08/25 06:30:02;;;;;;;29.70;17.30;;;;;;;19.94;100.00;100838.69;6093893;19;20014;-71
2023/08/25 06:32:07;;;;;;;36.95;18.38;;;;;;;19.85;100.00;100836.78;6098742;19;20771;-71
2023/08/25 06:34:12;;;;;;;32.60;16.60;;;;;;;19.87;100.00;100841.97;6098442;19;19998;-71
2023/08/25 06:36:18;;;;;;;32.75;17.60;;;;;;;19.89;100.00;100848.03;6098575;19;19998;-72
2023/08/25 06:38:24;;;;;;;35.35;19.35;;;;;;;19.79;100.00;100839.91;6094569;19;20007;-72
2023/08/25 06:40:29;;;;;;;34.72;19.63;;;;;;;19.82;100.00;100838.81;6087029;19;20010;-71
2023/08/25 06:42:37;;;;;;;38.55;20.45;;;;;;;19.79;100.00;100844.41;6096147;19;20090;-71
2023/08/25 06:44:42;;;;;;;39.65;20.25;;;;;;;19.77;100.00;100841.00;6095814;19;20043;-73
2023/08/25 06:46:50;;;;;;;39.92;20.27;;;;;;;19.79;100.00;100839.06;6094140;19;20029;-71
2023/08/25 06:48:52;;;;;;;37.03;18.98;;;;;;;19.76;100.00;100845.50;6097521;19;20010;-71
2023/08/25 06:50:59;;;;;;;36.58;19.00;;;;;;;19.75;100.00;100846.47;6093855;19;20017;-71
2023/08/25 06:53:04;;;;;;;40.55;21.55;;;;;;;19.72;100.00;100847.56;6090129;19;20015;-72
2023/08/25 06:55:11;;;;;;;37.90;19.25;;;;;;;19.64;100.00;100846.41;6092484;19;20444;-71
2023/08/25 06:57:16;;;;;;;41.10;20.02;;;;;;;19.65;100.00;100845.47;6088172;19;20026;-71
2023/08/25 06:59:25;;;;;;;37.65;19.13;;;;;;;19.68;100.00;100846.09;6087438;19;20003;-71
2023/08/25 07:01:31;;;;;;;35.95;18.13;;;;;;;19.78;100.00;100840.88;6088877;19;20305;-70
2023/08/25 07:03:37;;;;;;;36.38;19.05;;;;;;;19.84;100.00;100836.88;6091695;19;20469;-70
2023/08/25 07:05:43;;;;;;;40.47;19.70;;;;;;;19.93;100.00;100836.13;6083482;19;20003;-70
2023/08/25 07:07:47;;;;;;;35.70;17.92;;;;;;;19.94;100.00;100836.03;6083816;19;20051;-72
2023/08/25 07:09:53;;;;;;;38.95;18.88;;;;;;;19.99;100.00;100835.66;6091568;19;20006;-72
2023/08/25 07:12:00;;;;;;;34.40;17.45;;;;;;;19.99;100.00;100826.81;6091094;19;20011;-73
2023/08/25 07:14:05;;;;;;;29.63;16.52;;;;;;;20.01;100.00;100817.72;6091226;19;20571;-73
2023/08/25 07:16:13;;;;;;;29.95;17.00;;;;;;;20.05;100.00;100813.81;6092898;19;20712;-73
2023/08/25 07:18:15;;;;;;;33.10;19.50;;;;;;;20.18;100.00;100816.34;6088745;19;20070;-73
2023/08/25 07:20:20;;;;;;;33.85;17.48;;;;;;;20.13;100.00;100811.38;6090291;19;20035;-73
2023/08/25 07:22:25;;;;;;;35.88;17.98;;;;;;;20.23;100.00;100806.16;6090946;19;21330;-73
2023/08/25 07:24:31;;;;;;;31.73;17.23;;;;;;;20.32;100.00;100800.03;6088580;19;20006;-73
2023/08/25 07:26:36;;;;;;;36.38;18.98;;;;;;;20.46;100.00;100806.94;6089058;19;20463;-73
2023/08/25 07:28:41;;;;;;;33.22;18.23;;;;;;;20.68;100.00;100805.19;6090823;19;20073;-73
2023/08/25 07:30:46;;;;;;;37.15;20.25;;;;;;;20.58;100.00;100802.41;6091680;19;20015;-73
2023/08/25 07:32:55;;;;;;;38.70;20.83;;;;;;;20.45;100.00;100804.38;6083101;19;20011;-72
2023/08/25 07:35:00;;;;;;;37.83;19.20;;;;;;;20.41;100.00;100802.94;6090847;19;20010;-72
2023/08/25 07:37:06;;;;;;;35.92;18.00;;;;;;;20.51;100.00;100804.72;6089769;19;20013;-72
2023/08/25 07:39:11;;;;;;;31.38;17.30;;;;;;;20.63;100.00;100813.56;6084764;19;20003;-72
2023/08/25 07:41:21;;;;;;;32.95;17.83;;;;;;;20.67;100.00;100811.47;6089819;19;20076;-73
2023/08/25 07:43:28;;;;;;;32.60;17.27;;;;;;;20.86;100.00;100811.63;6088660;19;20333;-74
2023/08/25 07:45:31;;;;;;;36.72;18.48;;;;;;;20.74;100.00;100810.00;6087504;19;20341;-70
2023/08/25 07:47:36;;;;;;;36.50;17.92;;;;;;;20.83;100.00;100810.06;6092821;19;20010;-70
2023/08/25 07:49:43;;;;;;;38.45;18.13;;;;;;;20.81;100.00;100816.53;6090407;19;20526;-70
2023/08/25 07:51:49;;;;;;;31.92;17.70;;;;;;;20.58;100.00;100815.75;6088922;19;20035;-71
2023/08/25 07:53:54;;;;;;;33.15;17.45;;;;;;;20.48;100.00;100815.63;6086535;19;20490;-71
2023/08/25 07:55:59;;;;;;;33.22;17.08;;;;;;;20.53;100.00;100824.13;6092360;19;20009;-71
2023/08/25 07:58:04;;;;;;;34.42;16.45;;;;;;;20.65;100.00;100821.47;6091639;19;20011;-70
2023/08/25 08:00:15;;;;;;;32.00;17.38;;;;;;;20.46;100.00;100822.06;6088498;19;20484;-70
2023/08/25 08:02:22;;;;;;;31.37;17.73;;;;;;;20.52;100.00;100834.94;6089747;19;20353;-71
2023/08/25 08:04:30;;;;;;;32.00;16.90;;;;;;;20.75;100.00;100817.88;6092338;19;20256;-70
2023/08/25 08:06:38;;;;;;;39.70;17.73;;;;;;;21.02;100.00;100821.88;6091348;19;20010;-70
2023/08/25 08:08:43;;;;;;;33.80;17.25;;;;;;;21.23;100.00;100828.06;6089539;19;20017;-70
2023/08/25 08:10:48;;;;;;;34.88;18.27;;;;;;;20.85;100.00;100828.63;6091491;19;20423;-71
2023/08/25 08:12:54;;;;;;;36.65;18.30;;;;;;;20.87;100.00;100832.03;6086713;19;20002;-72
2023/08/25 08:14:59;;;;;;;31.88;18.13;;;;;;;20.93;100.00;100828.84;6091200;19;20016;-71
2023/08/25 08:17:05;;;;;;;35.67;20.65;;;;;;;20.82;100.00;100819.03;6091329;19;20010;-70
2023/08/25 08:19:10;;;;;;;34.13;17.58;;;;;;;20.96;100.00;100825.06;6087318;19;20044;-71
2023/08/25 08:21:15;;;;;;;38.90;19.67;;;;;;;21.05;100.00;100818.94;6088635;19;20006;-74
2023/08/25 08:23:23;;;;;;;36.90;18.00;;;;;;;21.05;100.00;100825.13;6089949;19;20011;-72
2023/08/25 08:25:30;;;;;;;37.72;21.27;;;;;;;21.09;100.00;100822.19;6087598;19;20467;-73
2023/08/25 08:27:39;;;;;;;37.20;17.95;;;;;;;21.26;100.00;100829.63;6088752;19;20038;-72
2023/08/25 08:29:44;;;;;;;37.83;17.92;;;;;;;21.19;100.00;100825.78;6094709;19;20015;-72
2023/08/25 08:31:49;;;;;;;32.40;18.13;;;;;;;21.40;100.00;100829.31;6099123;19;20006;-72
2023/08/25 08:33:56;;;;;;;34.38;17.27;;;;;;;21.60;99.03;100835.59;6095012;19;20021;-73
2023/08/25 08:36:02;;;;;;;38.22;17.13;;;;;;;21.48;98.50;100832.19;6097270;19;20023;-73
2023/08/25 08:38:10;;;;;;;34.47;17.92;;;;;;;21.44;98.82;100830.75;6098191;19;20035;-73
2023/08/25 08:40:20;;;;;;;30.35;16.15;;;;;;;21.57;99.35;100832.38;6098781;19;20094;-73
2023/08/25 08:42:25;;;;;;;33.33;17.27;;;;;;;21.73;98.00;100829.19;6091869;19;20381;-74
2023/08/25 08:44:33;;;;;;;30.55;16.38;;;;;;;21.85;95.52;100834.31;6096105;19;20475;-73
2023/08/25 08:46:41;;;;;;;31.77;15.70;;;;;;;21.73;96.53;100830.03;6098262;19;20015;-73
2023/08/25 08:48:50;;;;;;;29.17;15.02;;;;;;;21.97;96.96;100829.69;6093112;19;20007;-74
2023/08/25 08:50:56;;;;;;;30.75;15.75;;;;;;;22.17;94.88;100833.28;6098009;19;20566;-73
2023/08/25 08:53:04;;;;;;;26.02;15.18;;;;;;;22.27;94.68;100834.16;6093887;19;20028;-73
2023/08/25 08:55:15;;;;;;;29.50;15.25;;;;;;;22.08;95.12;100832.25;6095172;19;20614;-70
2023/08/25 08:57:24;;;;;;;30.05;15.10;;;;;;;21.90;94.30;100841.91;6098937;19;20010;-72
2023/08/25 08:59:33;;;;;;;26.98;15.38;;;;;;;22.29;94.05;100831.34;6091168;19;20021;-74
2023/08/25 09:01:39;;;;;;;29.50;14.32;;;;;;;22.45;93.21;100836.16;6086987;19;20014;-73
2023/08/25 09:03:50;;;;;;;23.25;13.93;;;;;;;22.59;93.26;100846.44;6089567;19;20408;-74
2023/08/25 09:05:59;;;;;;;23.83;13.15;;;;;;;22.81;91.31;100844.50;6090906;19;20003;-74
2023/08/25 09:08:09;;;;;;;27.33;14.45;;;;;;;22.84;89.61;100850.41;6093380;19;20581;-72
2023/08/25 09:10:14;;;;;;;27.67;13.75;;;;;;;22.26;89.07;100848.53;6072563;19;20491;-73
2023/08/25 09:12:20;;;;;;;24.63;13.10;;;;;;;22.34;90.75;100850.53;6095936;19;20002;-73
2023/08/25 09:14:30;;;;;;;27.58;13.18;;;;;;;22.60;89.62;100842.81;6095250;19;20007;-73
2023/08/25 09:16:38;;;;;;;23.65;12.93;;;;;;;22.94;89.32;100848.59;6093908;19;20354;-74
2023/08/25 09:18:43;;;;;;;24.80;12.73;;;;;;;22.98;87.65;100843.81;6097891;19;20009;-73
2023/08/25 09:20:48;;;;;;;26.67;14.07;;;;;;;22.63;87.54;100850.56;6090547;19;20376;-74
2023/08/25 09:22:57;;;;;;;23.05;12.90;;;;;;;23.01;88.48;100859.59;6099095;19;19998;-73
2023/08/25 09:24:59;;;;;;;29.08;14.40;;;;;;;22.39;88.54;100858.16;6095659;19;20402;-73
2023/08/25 09:27:04;;;;;;;;;;;;;;;22.55;88.49;100861.13;6095668;19;20562;-71
2023/08/25 09:29:10;;;;;;;30.67;13.75;;;;;;;22.10;89.46;100865.09;6088178;19;19986;-73
2023/08/25 09:31:26;;;;;;;22.75;12.57;;;;;;;22.01;90.68;100865.91;6097329;19;20017;-73